createdAt,value
2022-08-09T00:00:12.081Z,100212.44
2022-08-09T00:02:14.120Z,100202.41
2022-08-09T00:04:34.133Z,100223.31
2022-08-09T00:06:37.096Z,100213.34
2022-08-09T00:08:39.424Z,100209.09
2022-08-09T00:10:41.664Z,100213.38
2022-08-09T00:12:43.371Z,100212.50
2022-08-09T00:14:47.482Z,100219.50
2022-08-09T00:16:49.760Z,100221.56
2022-08-09T00:18:52.192Z,100219.47
2022-08-09T00:20:55.443Z,100213.63
2022-08-09T00:22:57.076Z,100205.47
2022-08-09T00:25:08.573Z,100217.78
2022-08-09T00:27:14.429Z,100210.31
2022-08-09T00:29:39.860Z,100211.50
2022-08-09T00:31:58.617Z,100222.88
2022-08-09T00:33:59.500Z,100216.16
2022-08-09T00:36:04.550Z,100214.66
2022-08-09T00:38:06.449Z,100195.88
2022-08-09T00:40:13.928Z,100209.75
2022-08-09T00:44:14.338Z,100205.53
2022-08-09T00:44:40.940Z,100199.38
2022-08-09T00:46:56.957Z,100212.19
2022-08-09T00:49:04.080Z,100211.25
2022-08-09T00:51:11.744Z,100210.56
2022-08-09T00:53:14.535Z,100204.88
2022-08-09T00:55:54.230Z,100199.69
2022-08-09T00:57:38.750Z,100204.16
2022-08-09T00:59:46.382Z,100199.47
2022-08-09T01:01:51.472Z,100209.50
2022-08-09T01:04:19.046Z,100200.09
2022-08-09T01:06:54.312Z,100193.34
2022-08-09T01:09:36.730Z,100190.63
2022-08-09T01:11:53.269Z,100191.72
2022-08-09T01:14:03.111Z,100180.88
2022-08-09T01:16:06.284Z,100206.03
2022-08-09T01:18:14.274Z,100188.81
2022-08-09T01:20:49.587Z,100202.78
2022-08-09T01:23:03.245Z,100195.84
2022-08-09T01:25:41.751Z,100197.31
2022-08-09T01:27:48.300Z,100201.81
2022-08-09T01:29:59.023Z,100197.94
2022-08-09T01:32:32.093Z,100196.94
2022-08-09T01:34:31.380Z,100202.59
2022-08-09T01:36:34.803Z,100201.06
2022-08-09T01:38:40.758Z,100203.72
2022-08-09T01:41:05.087Z,100210.31
2022-08-09T01:43:08.971Z,100205.66
2022-08-09T01:45:11.610Z,100211.81
2022-08-09T01:47:14.069Z,100195.88
2022-08-09T01:49:24.312Z,100199.84
2022-08-09T01:51:28.099Z,100214.06
2022-08-09T01:53:41.613Z,100207.16
2022-08-09T01:55:45.757Z,100206.72
2022-08-09T01:57:53.022Z,100220.09
2022-08-09T02:00:09.115Z,100204.72
2022-08-09T02:02:31.013Z,100220.25
2022-08-09T02:04:34.457Z,100205.09
2022-08-09T02:07:02.008Z,100223.03
2022-08-09T02:09:05.283Z,100240.53
2022-08-09T02:11:17.180Z,100240.66
2022-08-09T02:13:25.889Z,100227.47
2022-08-09T02:15:49.236Z,100225.84
2022-08-09T02:18:01.328Z,100237.69
2022-08-09T02:20:12.851Z,100217.72
2022-08-09T02:22:39.839Z,100220.44
2022-08-09T02:24:51.641Z,100239.19
2022-08-09T02:26:58.824Z,100215.59
2022-08-09T02:29:06.999Z,100224.84
2022-08-09T02:31:13.979Z,100218.44
2022-08-09T02:33:23.711Z,100211.81
2022-08-09T02:36:02.648Z,100236.13
2022-08-09T02:38:06.948Z,100224.25
2022-08-09T02:40:13.990Z,100241.75
2022-08-09T02:42:26.252Z,100247.78
2022-08-09T02:44:40.385Z,100248.03
2022-08-09T02:46:45.217Z,100234.94
2022-08-09T02:48:48.491Z,100229.03
2022-08-09T02:50:57.922Z,100217.13
2022-08-09T02:53:08.444Z,100227.06
2022-08-09T02:55:20.222Z,100242.78
2022-08-09T02:57:25.230Z,100236.81
2022-08-09T02:59:36.713Z,100259.47
2022-08-09T03:01:58.675Z,100251.91
2022-08-09T03:04:17.913Z,100234.59
2022-08-09T03:06:23.000Z,100251.47
2022-08-09T03:08:29.326Z,100242.25
2022-08-09T03:10:34.698Z,100236.53
2022-08-09T03:12:39.126Z,100238.53
2022-08-09T03:14:42.874Z,100243.19
2022-08-09T03:16:47.696Z,100223.75
2022-08-09T03:18:53.064Z,100228.81
2022-08-09T03:20:59.505Z,100227.34
2022-08-09T03:23:14.742Z,100228.00
2022-08-09T03:25:26.544Z,100233.38
2022-08-09T03:27:49.035Z,100224.88
2022-08-09T03:30:00.986Z,100212.66
2022-08-09T03:32:04.709Z,100201.31
2022-08-09T03:34:11.951Z,100215.84
2022-08-09T03:36:17.221Z,100209.88
2022-08-09T03:38:28.727Z,100228.16
2022-08-09T03:40:32.257Z,100237.81
2022-08-09T03:42:35.154Z,100240.03
2022-08-09T03:44:36.915Z,100240.53
2022-08-09T03:46:39.418Z,100236.84
2022-08-09T03:48:43.042Z,100243.38
2022-08-09T03:50:55.362Z,100247.16
2022-08-09T03:53:03.192Z,100247.72
2022-08-09T03:55:09.769Z,100240.66
2022-08-09T03:57:20.283Z,100245.50
2022-08-09T03:59:27.179Z,100247.25
2022-08-09T04:01:30.617Z,100254.91
2022-08-09T04:03:45.841Z,100262.66
2022-08-09T04:05:57.573Z,100273.59
2022-08-09T04:07:59.273Z,100258.28
2022-08-09T04:10:00.998Z,100256.56
2022-08-09T04:12:30.042Z,100246.34
2022-08-09T04:14:52.769Z,100264.69
2022-08-09T04:16:54.554Z,100275.94
2022-08-09T04:19:01.202Z,100266.97
2022-08-09T04:21:03.993Z,100279.81
2022-08-09T04:23:09.971Z,100260.59
2022-08-09T04:25:18.290Z,100252.41
2022-08-09T04:27:22.127Z,100282.50
2022-08-09T04:29:24.170Z,100272.09
2022-08-09T04:31:37.583Z,100293.97
2022-08-09T04:33:52.381Z,100269.50
2022-08-09T04:35:58.574Z,100275.34
2022-08-09T04:38:03.564Z,100271.41
2022-08-09T04:40:07.548Z,100266.50
2022-08-09T04:42:10.264Z,100272.22
2022-08-09T04:44:17.502Z,100286.94
2022-08-09T04:46:38.250Z,100276.13
2022-08-09T04:48:41.143Z,100280.22
2022-08-09T04:50:59.310Z,100305.13
2022-08-09T04:53:01.023Z,100289.53
2022-08-09T04:55:04.674Z,100309.81
2022-08-09T04:57:12.330Z,100300.31
2022-08-09T04:59:15.496Z,100289.88
2022-08-09T05:01:18.948Z,100288.72
2022-08-09T05:03:40.549Z,100294.03
2022-08-09T05:05:51.851Z,100305.94
2022-08-09T05:07:54.039Z,100294.06
2022-08-09T05:09:55.902Z,100290.50
2022-08-09T05:11:58.650Z,100311.59
2022-08-09T05:14:01.299Z,100307.47
2022-08-09T05:16:10.115Z,100305.03
2022-08-09T05:18:39.214Z,100303.13
2022-08-09T05:20:33.702Z,100303.34
2022-08-09T05:23:56.722Z,100307.66
2022-08-09T05:25:02.466Z,100296.41
2022-08-09T05:27:04.668Z,100311.34
2022-08-09T05:29:06.392Z,100327.06
2022-08-09T05:31:09.583Z,100317.22
2022-08-09T05:33:11.979Z,100322.25
2022-08-09T05:35:14.913Z,100335.22
2022-08-09T05:37:16.570Z,100328.22
2022-08-09T05:39:28.330Z,100348.41
2022-08-09T05:41:30.931Z,100375.84
2022-08-09T05:43:35.485Z,100349.50
2022-08-09T05:45:43.579Z,100348.28
2022-08-09T05:48:01.061Z,100361.84
2022-08-09T05:50:23.463Z,100348.91
2022-08-09T05:52:25.088Z,100347.63
2022-08-09T05:54:26.715Z,100350.50
2022-08-09T05:56:28.479Z,100370.13
2022-08-09T05:58:30.163Z,100359.53
2022-08-09T06:00:32.840Z,100369.63
2022-08-09T06:02:35.711Z,100382.47
2022-08-09T06:04:37.667Z,100358.88
2022-08-09T06:06:49.786Z,100370.69
2022-08-09T06:08:52.794Z,100393.22
2022-08-09T06:10:56.247Z,100375.63
2022-08-09T06:13:11.647Z,100388.63
2022-08-09T06:15:14.272Z,100390.53
2022-08-09T06:17:15.975Z,100377.47
2022-08-09T06:19:18.205Z,100394.34
2022-08-09T06:21:22.559Z,100407.88
2022-08-09T06:23:55.785Z,100399.31
2022-08-09T06:25:47.239Z,100409.38
2022-08-09T06:27:51.876Z,100405.47
2022-08-09T06:29:58.570Z,100403.97
2022-08-09T06:32:08.706Z,100400.25
2022-08-09T06:34:30.676Z,100396.66
2022-08-09T06:36:32.626Z,100409.66
2022-08-09T06:38:37.467Z,100425.06
2022-08-09T06:40:39.548Z,100417.38
2022-08-09T06:42:45.216Z,100415.41
2022-08-09T06:44:51.790Z,100406.28
2022-08-09T06:46:56.327Z,100422.13
2022-08-09T06:49:00.399Z,100436.84
2022-08-09T06:51:04.420Z,100446.41
2022-08-09T06:53:06.908Z,100430.91
2022-08-09T06:55:12.589Z,100428.53
2022-08-09T06:57:14.833Z,100429.38
2022-08-09T07:00:49.067Z,100428.47
2022-08-09T07:01:58.101Z,100434.22
2022-08-09T07:04:03.922Z,100441.31
2022-08-09T07:06:06.207Z,100438.84
2022-08-09T07:08:07.880Z,100439.22
2022-08-09T07:10:22.414Z,100435.19
2022-08-09T07:12:37.879Z,100448.13
2022-08-09T07:14:42.600Z,100446.34
2022-08-09T07:16:48.126Z,100447.09
2022-08-09T07:18:52.520Z,100451.28
2022-08-09T07:20:54.879Z,100469.69
2022-08-09T07:22:57.742Z,100454.94
2022-08-09T07:25:00.359Z,100438.66
2022-08-09T07:27:02.873Z,100454.94
2022-08-09T07:29:09.071Z,100457.69
2022-08-09T07:31:13.942Z,100459.16
2022-08-09T07:33:17.609Z,100460.69
2022-08-09T07:35:19.618Z,100464.84
2022-08-09T07:37:22.035Z,100455.75
2022-08-09T07:39:41.291Z,100472.31
2022-08-09T07:41:43.985Z,100459.13
2022-08-09T07:43:49.890Z,100452.28
2022-08-09T07:46:01.834Z,100468.00
2022-08-09T07:48:05.411Z,100469.88
2022-08-09T07:50:08.610Z,100457.66
2022-08-09T07:52:16.939Z,100477.72
2022-08-09T07:54:27.990Z,100476.34
2022-08-09T07:56:33.891Z,100467.16
2022-08-09T07:58:36.032Z,100465.84
2022-08-09T08:00:38.011Z,100461.13
2022-08-09T08:02:59.672Z,100459.97
2022-08-09T08:05:02.081Z,100480.13
2022-08-09T08:07:42.094Z,100470.25
2022-08-09T08:09:35.585Z,100471.56
2022-08-09T08:12:25.154Z,100459.13
2022-08-09T08:14:06.606Z,100476.16
2022-08-09T08:16:08.376Z,100469.03
2022-08-09T08:18:30.030Z,100467.38
2022-08-09T08:20:33.537Z,100472.44
2022-08-09T08:22:35.544Z,100480.16
2022-08-09T08:24:40.269Z,100472.28
2022-08-09T08:26:55.865Z,100469.94
2022-08-09T08:28:58.266Z,100476.63
2022-08-09T08:31:14.344Z,100462.53
2022-08-09T08:33:23.182Z,100467.88
2022-08-09T08:35:32.037Z,100491.38
2022-08-09T08:37:59.522Z,100468.88
2022-08-09T08:40:07.378Z,100486.25
2022-08-09T08:42:09.206Z,100468.78
2022-08-09T08:44:13.849Z,100481.53
2022-08-09T08:46:32.246Z,100473.41
2022-08-09T08:48:37.113Z,100494.75
2022-08-09T08:50:39.291Z,100488.06
2022-08-09T08:52:59.133Z,100464.84
2022-08-09T08:55:03.777Z,100486.69
2022-08-09T08:57:11.402Z,100487.97
2022-08-09T08:59:18.987Z,100472.53
2022-08-09T09:01:24.992Z,100485.75
2022-08-09T09:03:38.842Z,100482.63
2022-08-09T09:06:00.524Z,100483.81
2022-08-09T09:08:04.032Z,100490.91
2022-08-09T09:10:09.343Z,100485.28
2022-08-09T09:12:16.639Z,100478.31
2022-08-09T09:14:31.375Z,100479.47
2022-08-09T09:16:35.137Z,100489.09
2022-08-09T09:18:37.494Z,100499.53
2022-08-09T09:20:39.196Z,100478.66
2022-08-09T09:22:56.003Z,100482.75
2022-08-09T09:26:00.963Z,100471.28
2022-08-09T09:27:22.029Z,100466.78
2022-08-09T09:30:10.570Z,100458.28
2022-08-09T09:32:15.478Z,100477.59
2022-08-09T09:34:18.426Z,100480.75
2022-08-09T09:36:21.275Z,100478.47
2022-08-09T09:38:38.944Z,100483.09
2022-08-09T09:40:46.325Z,100481.00
2022-08-09T09:42:57.643Z,100479.75
2022-08-09T09:45:08.262Z,100486.72
2022-08-09T09:47:16.660Z,100472.44
2022-08-09T09:49:50.020Z,100495.28
2022-08-09T09:51:51.255Z,100479.91
2022-08-09T09:54:09.407Z,100480.75
2022-08-09T09:56:19.971Z,100477.38
2022-08-09T09:58:48.127Z,100469.84
2022-08-09T10:00:58.985Z,100461.38
2022-08-09T10:03:11.808Z,100472.16
2022-08-09T10:05:15.726Z,100471.06
2022-08-09T10:07:29.981Z,100482.78
2022-08-09T10:09:55.067Z,100465.72
2022-08-09T10:12:14.509Z,100459.44
2022-08-09T10:14:30.438Z,100460.81
2022-08-09T10:16:56.541Z,100472.66
2022-08-09T10:19:02.181Z,100455.56
2022-08-09T10:21:10.076Z,100455.06
2022-08-09T10:23:22.855Z,100450.66
2022-08-09T10:25:25.701Z,100461.66
2022-08-09T10:27:38.572Z,100451.00
2022-08-09T10:30:41.757Z,100461.09
2022-08-09T10:32:38.235Z,100460.03
2022-08-09T10:34:34.033Z,100457.00
2022-08-09T10:36:38.576Z,100438.09
2022-08-09T10:38:57.308Z,100453.22
2022-08-09T10:41:02.569Z,100449.28
2022-08-09T10:43:05.916Z,100456.50
2022-08-09T10:45:16.530Z,100460.31
2022-08-09T10:48:19.175Z,100463.31
2022-08-09T10:50:02.045Z,100471.84
2022-08-09T10:52:27.484Z,100460.63
2022-08-09T10:54:30.513Z,100473.25
2022-08-09T10:56:37.710Z,100461.44
2022-08-09T10:58:39.962Z,100460.34
2022-08-09T11:03:49.536Z,100428.44
2022-08-09T11:06:15.660Z,100438.38
2022-08-09T11:08:47.709Z,100431.09
2022-08-09T11:10:54.758Z,100441.88
2022-08-09T11:13:51.063Z,100434.59
2022-08-09T11:15:50.723Z,100446.50
2022-08-09T11:18:02.964Z,100429.81
2022-08-09T11:20:12.749Z,100419.41
2022-08-09T11:22:45.320Z,100432.91
2022-08-09T11:25:09.892Z,100423.78
2022-08-09T11:28:02.752Z,100423.03
2022-08-09T11:30:05.051Z,100425.13
2022-08-09T11:32:08.601Z,100420.69
2022-08-09T11:34:35.114Z,100420.41
2022-08-09T11:36:43.715Z,100416.94
2022-08-09T11:39:01.285Z,100410.81
2022-08-09T11:41:38.040Z,100411.84
2022-08-09T11:43:46.663Z,100407.88
2022-08-09T11:45:57.624Z,100403.59
2022-08-09T11:48:08.152Z,100397.13
2022-08-09T11:50:55.474Z,100393.69
2022-08-09T11:53:16.442Z,100381.06
2022-08-09T11:55:51.463Z,100394.47
2022-08-09T11:58:02.735Z,100403.44
2022-08-09T12:00:15.877Z,100400.97
2022-08-09T12:02:37.686Z,100401.56
2022-08-09T12:04:40.660Z,100402.25
2022-08-09T12:06:55.955Z,100389.66
2022-08-09T12:08:57.898Z,100389.66
2022-08-09T12:11:03.766Z,100388.28
2022-08-09T12:14:07.047Z,100399.84
2022-08-09T12:15:50.187Z,100386.84
2022-08-09T12:17:53.517Z,100399.03
2022-08-09T12:19:59.441Z,100397.59
2022-08-09T12:22:03.910Z,100396.44
2022-08-09T12:24:09.964Z,100391.81
2022-08-09T12:26:12.841Z,100386.94
2022-08-09T12:29:15.614Z,100388.47
2022-08-09T12:30:45.601Z,100389.66
2022-08-09T12:33:02.032Z,100391.28
2022-08-09T12:35:12.547Z,100374.50
2022-08-09T12:37:32.077Z,100366.19
2022-08-09T12:39:34.230Z,100375.53
2022-08-09T12:41:40.358Z,100374.00
2022-08-09T12:44:06.355Z,100380.59
2022-08-09T12:46:05.008Z,100370.72
2022-08-09T12:48:20.006Z,100367.34
2022-08-09T12:50:32.209Z,100369.44
2022-08-09T12:52:42.630Z,100368.50
2022-08-09T12:56:14.539Z,100373.44
2022-08-09T12:57:39.356Z,100372.34
2022-08-09T13:00:03.516Z,100366.56
2022-08-09T13:02:07.252Z,100377.47
2022-08-09T13:04:38.121Z,100356.50
2022-08-09T13:06:38.878Z,100369.72
2022-08-09T13:08:58.094Z,100355.88
2022-08-09T13:11:23.348Z,100353.00
2022-08-09T13:14:11.880Z,100343.25
2022-08-09T13:15:57.210Z,100346.53
2022-08-09T13:18:05.817Z,100329.16
2022-08-09T13:20:16.251Z,100346.69
2022-08-09T13:23:00.420Z,100343.38
2022-08-09T13:24:55.688Z,100349.25
2022-08-09T13:27:01.129Z,100342.22
2022-08-09T13:29:19.512Z,100325.44
2022-08-09T13:32:16.179Z,100333.13
2022-08-09T13:33:52.796Z,100334.03
2022-08-09T13:36:39.757Z,100341.78
2022-08-09T13:38:17.633Z,100342.00
2022-08-09T13:41:51.303Z,100336.66
2022-08-09T13:43:00.063Z,100339.41
2022-08-09T13:45:08.390Z,100325.25
2022-08-09T13:47:33.902Z,100329.19
2022-08-09T13:49:57.297Z,100337.66
2022-08-09T13:52:01.219Z,100327.09
2022-08-09T13:54:03.516Z,100315.38
2022-08-09T13:56:05.429Z,100332.31
2022-08-09T13:58:08.080Z,100334.13
2022-08-09T14:00:16.434Z,100327.44
2022-08-09T14:02:25.843Z,100318.47
2022-08-09T14:04:28.084Z,100314.41
2022-08-09T14:06:31.717Z,100322.28
2022-08-09T14:08:33.939Z,100308.44
2022-08-09T14:10:46.243Z,100298.16
2022-08-09T14:12:50.695Z,100310.91
2022-08-09T14:14:53.682Z,100314.84
2022-08-09T14:16:58.622Z,100308.53
2022-08-09T14:19:00.348Z,100307.41
2022-08-09T14:21:03.155Z,100320.88
2022-08-09T14:23:07.841Z,100321.03
2022-08-09T14:25:10.960Z,100324.34
2022-08-09T14:27:20.034Z,100322.63
2022-08-09T14:30:04.089Z,100322.28
2022-08-09T14:31:52.002Z,100316.44
2022-08-09T14:33:55.410Z,100308.88
2022-08-09T14:35:57.082Z,100308.44
2022-08-09T14:38:13.732Z,100306.88
2022-08-09T14:40:17.693Z,100302.91
2022-08-09T14:42:28.765Z,100308.13
2022-08-09T14:44:48.638Z,100310.81
2022-08-09T14:46:59.330Z,100301.16
2022-08-09T14:49:06.627Z,100307.06
2022-08-09T14:51:12.248Z,100295.47
2022-08-09T14:53:14.476Z,100296.84
2022-08-09T14:55:20.171Z,100288.94
2022-08-09T14:57:22.732Z,100282.19
2022-08-09T14:59:38.685Z,100284.22
2022-08-09T15:01:41.206Z,100285.56
2022-08-09T15:03:43.075Z,100292.25
2022-08-09T15:05:49.600Z,100286.16
2022-08-09T15:07:55.952Z,100298.47
2022-08-09T15:10:10.339Z,100287.97
2022-08-09T15:12:15.581Z,100288.69
2022-08-09T15:14:19.260Z,100296.94
2022-08-09T15:16:21.193Z,100286.06
2022-08-09T15:18:22.884Z,100290.72
2022-08-09T15:21:57.686Z,100289.91
2022-08-09T15:22:47.371Z,100296.56
2022-08-09T15:24:49.101Z,100287.47
2022-08-09T15:26:53.383Z,100302.16
2022-08-09T15:28:55.419Z,100289.56
2022-08-09T15:31:08.931Z,100299.78
2022-08-09T15:33:23.268Z,100306.38
2022-08-09T15:35:40.901Z,100291.34
2022-08-09T15:37:56.631Z,100289.69
2022-08-09T15:40:15.322Z,100280.69
2022-08-09T15:42:21.915Z,100283.47
2022-08-09T15:44:23.682Z,100287.38
2022-08-09T15:46:28.562Z,100282.44
2022-08-09T15:48:35.695Z,100288.19
2022-08-09T15:50:38.998Z,100289.69
2022-08-09T15:52:55.073Z,100275.63
2022-08-09T15:55:07.516Z,100275.34
2022-08-09T15:57:09.638Z,100269.09
2022-08-09T15:59:11.325Z,100284.78
2022-08-09T16:01:13.087Z,100277.84
2022-08-09T16:03:26.600Z,100281.81
2022-08-09T16:05:53.152Z,100273.88
2022-08-09T16:07:57.315Z,100282.78
2022-08-09T16:10:04.373Z,100282.75
2022-08-09T16:12:07.794Z,100280.47
2022-08-09T16:14:13.776Z,100276.75
2022-08-09T16:16:17.124Z,100274.34
2022-08-09T16:18:20.114Z,100281.03
2022-08-09T16:20:30.069Z,100274.59
2022-08-09T16:22:33.729Z,100279.59
2022-08-09T16:24:35.733Z,100286.63
2022-08-09T16:26:37.943Z,100279.91
2022-08-09T16:28:39.636Z,100281.66
2022-08-09T16:30:44.690Z,100284.00
2022-08-09T16:33:05.324Z,100284.41
2022-08-09T16:35:07.720Z,100289.41
2022-08-09T16:37:12.939Z,100284.94
2022-08-09T16:39:16.517Z,100288.69
2022-08-09T16:41:22.106Z,100287.16
2022-08-09T16:43:26.856Z,100268.88
2022-08-09T16:45:29.373Z,100274.22
2022-08-09T16:48:43.283Z,100281.19
2022-08-09T16:50:33.225Z,100277.97
2022-08-09T16:52:16.082Z,100281.59
2022-08-09T16:54:28.285Z,100278.59
2022-08-09T16:56:36.655Z,100267.00
2022-08-09T16:58:50.378Z,100271.44
2022-08-09T17:00:52.499Z,100274.78
2022-08-09T17:02:57.414Z,100272.38
2022-08-09T17:04:59.809Z,100282.84
2022-08-09T17:08:41.061Z,100274.97
2022-08-09T17:09:45.457Z,100267.53
2022-08-09T17:11:45.069Z,100267.41
2022-08-09T17:14:01.169Z,100261.50
2022-08-09T17:16:04.499Z,100262.50
2022-08-09T17:18:07.380Z,100262.53
2022-08-09T17:20:33.280Z,100252.09
2022-08-09T17:22:35.968Z,100274.78
2022-08-09T17:24:37.948Z,100271.19
2022-08-09T17:26:53.506Z,100269.69
2022-08-09T17:28:55.479Z,100267.69
2022-08-09T17:30:57.108Z,100270.63
2022-08-09T17:33:05.625Z,100268.50
2022-08-09T17:35:24.947Z,100268.25
2022-08-09T17:37:29.821Z,100270.41
2022-08-09T17:39:53.267Z,100270.78
2022-08-09T17:41:53.401Z,100278.69
2022-08-09T17:44:42.560Z,100280.34
2022-08-09T17:46:16.802Z,100277.03
2022-08-09T17:48:19.458Z,100274.47
2022-08-09T17:50:37.199Z,100264.41
2022-08-09T17:52:39.652Z,100270.97
2022-08-09T17:54:41.298Z,100270.41
2022-08-09T17:56:44.009Z,100278.41
2022-08-09T17:58:46.991Z,100280.75
2022-08-09T18:00:49.015Z,100269.72
2022-08-09T18:02:58.106Z,100269.19
2022-08-09T18:05:00.377Z,100261.88
2022-08-09T18:07:04.784Z,100270.72
2022-08-09T18:09:09.736Z,100266.13
2022-08-09T18:11:16.393Z,100273.97
2022-08-09T18:13:38.992Z,100267.03
2022-08-09T18:16:04.915Z,100261.56
2022-08-09T18:18:07.922Z,100267.63
2022-08-09T18:20:55.132Z,100282.94
2022-08-09T18:22:33.941Z,100274.59
2022-08-09T18:24:36.272Z,100271.78
2022-08-09T18:26:45.868Z,100275.22
2022-08-09T18:30:41.446Z,100276.06
2022-08-09T18:31:11.370Z,100288.31
2022-08-09T18:33:15.111Z,100285.81
2022-08-09T18:35:16.955Z,100285.84
2022-08-09T18:37:49.152Z,100291.50
2022-08-09T18:39:48.315Z,100294.97
2022-08-09T18:41:52.843Z,100288.75
2022-08-09T18:43:55.457Z,100295.16
2022-08-09T18:46:50.005Z,100286.28
2022-08-09T18:48:18.939Z,100291.06
2022-08-09T18:50:22.007Z,100283.38
2022-08-09T18:52:34.546Z,100294.25
2022-08-09T18:54:36.907Z,100291.31
2022-08-09T18:56:38.589Z,100289.94
2022-08-09T18:58:40.302Z,100291.63
2022-08-09T19:00:42.010Z,100290.50
2022-08-09T19:02:44.478Z,100296.84
2022-08-09T19:04:47.408Z,100302.28
2022-08-09T19:06:50.814Z,100293.00
2022-08-09T19:08:55.274Z,100307.09
2022-08-09T19:11:04.108Z,100299.44
2022-08-09T19:13:20.566Z,100297.13
2022-08-09T19:15:25.369Z,100295.38
2022-08-09T19:17:31.234Z,100305.84
2022-08-09T19:19:41.562Z,100305.47
2022-08-09T19:21:47.840Z,100312.97
2022-08-09T19:24:32.637Z,100312.75
2022-08-09T19:26:16.316Z,100310.59
2022-08-09T19:28:18.046Z,100306.13
2022-08-09T19:30:24.568Z,100307.72
2022-08-09T19:32:31.624Z,100301.28
2022-08-09T19:34:40.867Z,100301.25
2022-08-09T19:36:45.370Z,100301.06
2022-08-09T19:38:47.607Z,100306.47
2022-08-09T19:40:51.936Z,100314.19
2022-08-09T19:42:53.648Z,100313.34
2022-08-09T19:44:55.338Z,100308.06
2022-08-09T19:46:57.417Z,100305.06
2022-08-09T19:49:01.626Z,100301.38
2022-08-09T19:51:05.104Z,100311.88
2022-08-09T19:53:06.854Z,100319.44
2022-08-09T19:55:14.878Z,100322.63
2022-08-09T19:57:17.250Z,100314.97
2022-08-09T19:59:57.486Z,100313.06
2022-08-09T20:02:02.986Z,100308.34
2022-08-09T20:04:23.811Z,100312.22
2022-08-09T20:06:31.309Z,100298.78
2022-08-09T20:08:35.101Z,100300.19
2022-08-09T20:10:37.470Z,100308.91
2022-08-09T20:12:45.937Z,100308.41
2022-08-09T20:14:50.491Z,100313.91
2022-08-09T20:16:55.185Z,100314.97
2022-08-09T20:19:42.020Z,100316.66
2022-08-09T20:21:22.040Z,100313.06
2022-08-09T20:23:39.305Z,100318.56
2022-08-09T20:25:52.153Z,100318.56
2022-08-09T20:27:54.340Z,100307.00
2022-08-09T20:29:58.859Z,100311.13
2022-08-09T20:32:30.460Z,100314.41
2022-08-09T20:34:22.295Z,100313.63
2022-08-09T20:36:24.742Z,100317.75
2022-08-09T20:38:44.189Z,100317.22
2022-08-09T20:40:51.266Z,100325.38
2022-08-09T20:42:59.695Z,100323.78
2022-08-09T20:45:58.618Z,100325.13
2022-08-09T20:47:48.105Z,100317.31
2022-08-09T20:49:46.601Z,100314.19
2022-08-09T20:51:51.508Z,100321.00
2022-08-09T20:53:53.361Z,100328.16
2022-08-09T20:56:00.740Z,100335.28
2022-08-09T20:58:07.702Z,100331.41
2022-08-09T21:00:32.148Z,100348.72
2022-08-09T21:02:35.088Z,100343.50
2022-08-09T21:05:54.548Z,100346.25
2022-08-09T21:06:59.110Z,100341.31
2022-08-09T21:09:14.459Z,100342.16
2022-08-09T21:14:00.205Z,100348.16
2022-08-09T21:16:02.218Z,100345.41
2022-08-09T21:18:21.218Z,100349.56
2022-08-09T21:20:29.679Z,100339.66
2022-08-09T21:22:38.413Z,100341.63
2022-08-09T21:25:01.135Z,100339.38
2022-08-09T21:27:10.497Z,100340.50
2022-08-09T21:29:25.807Z,100343.69
2022-08-09T21:31:48.492Z,100337.50
2022-08-09T21:33:52.764Z,100333.06
2022-08-09T21:35:54.766Z,100339.31
2022-08-09T21:38:01.277Z,100331.66
2022-08-09T21:40:04.313Z,100323.69
2022-08-09T21:42:12.375Z,100331.13
2022-08-09T21:44:15.252Z,100333.03
2022-08-09T21:46:34.296Z,100337.44
2022-08-09T21:48:38.858Z,100322.63
2022-08-09T21:50:51.194Z,100325.44
2022-08-09T21:52:53.910Z,100324.38
2022-08-09T21:55:03.255Z,100321.09
2022-08-09T21:57:06.486Z,100322.25
2022-08-09T21:59:27.281Z,100326.03
2022-08-09T22:02:00.239Z,100326.38
2022-08-09T22:04:03.177Z,100325.69
2022-08-09T22:06:05.005Z,100315.13
2022-08-09T22:08:12.835Z,100323.88
2022-08-09T22:10:22.879Z,100308.53
2022-08-09T22:12:31.304Z,100323.78
2022-08-09T22:14:39.002Z,100313.31
2022-08-09T22:16:40.747Z,100304.38
2022-08-09T22:18:53.215Z,100315.06
2022-08-09T22:20:56.718Z,100317.94
2022-08-09T22:22:59.585Z,100312.28
2022-08-09T22:26:06.969Z,100302.88
2022-08-09T22:27:22.963Z,100317.91
2022-08-09T22:29:32.402Z,100317.81
2022-08-09T22:31:56.737Z,100315.63
2022-08-09T22:33:58.912Z,100316.00
2022-08-09T22:36:03.818Z,100323.06
2022-08-09T22:38:07.511Z,100321.47
2022-08-09T22:40:10.847Z,100314.00
2022-08-09T22:42:23.488Z,100314.72
2022-08-09T22:44:26.033Z,100320.00
2022-08-09T22:48:16.726Z,100322.16
2022-08-09T22:48:56.404Z,100312.91
2022-08-09T22:51:10.568Z,100321.97
2022-08-09T22:53:19.535Z,100299.53
2022-08-09T22:55:22.966Z,100309.06
2022-08-09T22:57:31.589Z,100314.56
2022-08-09T22:59:58.022Z,100305.56
2022-08-09T23:01:59.347Z,100302.03
2022-08-09T23:04:04.868Z,100304.38
2022-08-09T23:06:08.218Z,100317.09
2022-08-09T23:08:34.611Z,100305.53
2022-08-09T23:10:41.604Z,100279.25
2022-08-09T23:12:45.735Z,100273.66
2022-08-09T23:14:47.378Z,100274.41
2022-08-09T23:16:55.575Z,100276.41
2022-08-09T23:18:57.297Z,100287.16
2022-08-09T23:20:58.949Z,100274.13
2022-08-09T23:23:00.588Z,100281.09
2022-08-09T23:25:03.423Z,100286.72
2022-08-09T23:27:05.077Z,100285.03
2022-08-09T23:29:11.549Z,100282.75
2022-08-09T23:31:13.294Z,100278.28
2022-08-09T23:33:14.971Z,100282.00
2022-08-09T23:35:16.611Z,100283.97
2022-08-09T23:37:22.639Z,100281.28
2022-08-09T23:39:24.647Z,100289.97
2022-08-09T23:41:28.518Z,100292.44
2022-08-09T23:43:31.125Z,100294.50
2022-08-09T23:45:37.532Z,100291.31
2022-08-09T23:47:40.256Z,100284.63
2022-08-09T23:49:41.945Z,100294.13
2022-08-09T23:51:43.615Z,100286.31
2022-08-09T23:53:45.247Z,100296.78
2022-08-09T23:55:49.662Z,100285.31
2022-08-09T23:58:07.921Z,100287.03
